createdAt,value
2019-02-06T00:03:31.181Z,100618.95
2019-02-06T00:07:33.672Z,100619.03
2019-02-06T00:11:36.648Z,100615.55
2019-02-06T00:15:39.439Z,100617.31
2019-02-06T00:19:42.594Z,100617.44
2019-02-06T00:23:45.128Z,100611.88
2019-02-06T00:27:47.771Z,100617.56
2019-02-06T00:31:50.178Z,100618.88
2019-02-06T00:35:52.721Z,100615.31
2019-02-06T00:39:55.134Z,100608.84
2019-02-06T00:43:57.573Z,100605.37
2019-02-06T00:48:00.171Z,100604.59
2019-02-06T00:52:02.579Z,100608.11
2019-02-06T00:56:05.194Z,100603.77
2019-02-06T01:00:13.472Z,100604.26
2019-02-06T01:04:16.191Z,100595.58
2019-02-06T01:08:18.843Z,100594.68
2019-02-06T01:12:21.371Z,100593.91
2019-02-06T01:16:24.088Z,100594.80
2019-02-06T01:20:27.011Z,100586.49
2019-02-06T01:24:29.803Z,100586.53
2019-02-06T01:28:32.189Z,100586.62
2019-02-06T01:32:34.563Z,100584.04
2019-02-06T01:36:37.070Z,100583.19
2019-02-06T01:40:39.565Z,100588.95
2019-02-06T01:44:42.081Z,100592.03
2019-02-06T01:48:44.573Z,100589.03
2019-02-06T01:52:47.105Z,100582.52
2019-02-06T01:56:49.505Z,100581.30
2019-02-06T02:00:51.981Z,100572.17
2019-02-06T02:04:54.325Z,100569.67
2019-02-06T02:09:01.290Z,100572.37
2019-02-06T02:13:05.457Z,100576.80
2019-02-06T02:17:08.301Z,100573.84
2019-02-06T02:21:11.188Z,100573.84
2019-02-06T02:25:15.251Z,100577.66
2019-02-06T02:29:17.634Z,100572.02
2019-02-06T02:33:20.167Z,100567.62
2019-02-06T02:37:22.610Z,100567.17
2019-02-06T02:41:25.010Z,100569.80
2019-02-06T02:45:27.377Z,100566.85
2019-02-06T02:49:29.811Z,100570.70
2019-02-06T02:53:32.161Z,100558.98
2019-02-06T02:57:34.556Z,100562.14
2019-02-06T03:01:53.628Z,100560.02
2019-02-06T03:05:56.171Z,100557.07
2019-02-06T03:09:58.855Z,100549.29
2019-02-06T03:14:01.274Z,100547.98
2019-02-06T03:18:04.111Z,100559.77
2019-02-06T03:22:07.273Z,100561.98
2019-02-06T03:26:10.101Z,100558.05
2019-02-06T03:30:15.054Z,100561.00
2019-02-06T03:34:17.572Z,100560.59
2019-02-06T03:38:20.002Z,100557.59
2019-02-06T03:42:22.596Z,100559.28
2019-02-06T03:46:25.365Z,100564.52
2019-02-06T03:50:27.948Z,100568.08
2019-02-06T03:54:30.480Z,100562.88
2019-02-06T03:58:33.063Z,100558.58
2019-02-06T04:02:35.510Z,100559.41
2019-02-06T04:06:37.852Z,100562.43
2019-02-06T04:10:40.438Z,100561.90
2019-02-06T04:14:43.215Z,100564.88
2019-02-06T04:18:45.687Z,100564.88
2019-02-06T04:22:51.612Z,100568.28
2019-02-06T04:26:54.411Z,100578.23
2019-02-06T04:30:57.867Z,100582.16
2019-02-06T04:35:00.614Z,100585.84
2019-02-06T04:39:04.334Z,100593.78
2019-02-06T04:43:07.429Z,100602.73
2019-02-06T04:47:10.053Z,100600.91
2019-02-06T04:51:13.739Z,100616.19
2019-02-06T04:55:16.871Z,100614.47
2019-02-06T04:59:19.896Z,100621.84
2019-02-06T05:03:25.632Z,100619.73
2019-02-06T05:07:26.918Z,100621.19
2019-02-06T05:11:29.526Z,100633.80
2019-02-06T05:15:32.421Z,100638.41
2019-02-06T05:19:35.146Z,100648.89
2019-02-06T05:23:37.801Z,100657.89
2019-02-06T05:27:40.628Z,100668.38
2019-02-06T05:31:43.284Z,100671.84
2019-02-06T05:35:45.954Z,100675.56
2019-02-06T05:39:48.578Z,100690.02
2019-02-06T05:43:51.258Z,100700.94
2019-02-06T05:47:54.044Z,100704.37
2019-02-06T05:51:56.666Z,100717.36
2019-02-06T05:55:59.453Z,100723.63
2019-02-06T06:00:01.974Z,100731.07
2019-02-06T06:04:04.874Z,100735.16
2019-02-06T06:08:07.654Z,100739.02
2019-02-06T06:12:10.398Z,100742.34
2019-02-06T06:16:12.813Z,100755.72
2019-02-06T06:20:17.050Z,100761.23
2019-02-06T06:24:19.477Z,100767.55
2019-02-06T06:28:21.885Z,100781.30
2019-02-06T06:32:25.726Z,100786.73
2019-02-06T06:36:28.238Z,100790.95
2019-02-06T06:40:31.009Z,100800.80
2019-02-06T06:44:33.578Z,100813.58
2019-02-06T06:48:36.328Z,100816.86
2019-02-06T06:52:39.098Z,100829.17
2019-02-06T06:56:41.595Z,100828.02
2019-02-06T07:00:44.243Z,100841.61
2019-02-06T07:04:46.858Z,100847.45
2019-02-06T07:08:49.418Z,100860.16
2019-02-06T07:12:52.363Z,100876.73
2019-02-06T07:16:54.813Z,100889.02
2019-02-06T07:21:01.344Z,100890.85
2019-02-06T07:25:02.764Z,100904.01
2019-02-06T07:29:05.399Z,100910.61
2019-02-06T07:33:08.124Z,100909.39
2019-02-06T07:37:11.034Z,100927.00
2019-02-06T07:41:13.810Z,100929.72
2019-02-06T07:45:17.672Z,100935.84
2019-02-06T07:49:20.359Z,100927.23
2019-02-06T07:53:23.265Z,100941.02
2019-02-06T07:57:26.014Z,100935.37
2019-02-06T08:01:28.867Z,100943.13
2019-02-06T08:05:31.645Z,100952.60
2019-02-06T08:09:34.422Z,100956.95
2019-02-06T08:13:37.222Z,100964.70
2019-02-06T08:17:39.885Z,100981.97
2019-02-06T08:21:42.669Z,100989.51
2019-02-06T08:25:45.454Z,100996.16
2019-02-06T08:29:48.212Z,101002.48
2019-02-06T08:33:50.963Z,101004.92
2019-02-06T08:37:53.895Z,100999.92
2019-02-06T08:41:56.710Z,101005.28
2019-02-06T08:45:59.543Z,101020.22
2019-02-06T08:50:02.181Z,101020.89
2019-02-06T08:54:08.325Z,101016.89
2019-02-06T08:58:11.257Z,101019.92
2019-02-06T09:02:14.092Z,101039.40
2019-02-06T09:06:16.843Z,101046.81
2019-02-06T09:10:21.504Z,101036.63
2019-02-06T09:14:24.172Z,101038.20
2019-02-06T09:18:26.912Z,101044.81
2019-02-06T09:22:29.538Z,101037.94
2019-02-06T09:26:36.056Z,101059.94
2019-02-06T09:30:37.298Z,101058.59
2019-02-06T09:34:40.210Z,101056.00
2019-02-06T09:38:42.818Z,101057.70
2019-02-06T09:42:45.908Z,101064.11
2019-02-06T09:46:48.383Z,101085.66
2019-02-06T09:50:51.388Z,101083.91
2019-02-06T09:54:54.134Z,101092.09
2019-02-06T09:58:56.842Z,101083.88
2019-02-06T10:02:59.688Z,101083.45
2019-02-06T10:07:02.452Z,101087.72
2019-02-06T10:11:05.127Z,101081.17
2019-02-06T10:15:08.144Z,101091.84
2019-02-06T10:19:10.751Z,101103.50
2019-02-06T10:23:13.799Z,101115.23
2019-02-06T10:27:16.446Z,101114.75
2019-02-06T10:31:19.208Z,101110.33
2019-02-06T10:35:21.948Z,101111.23
2019-02-06T10:39:34.351Z,101104.67
2019-02-06T10:43:32.575Z,101125.30
2019-02-06T10:47:35.029Z,101127.55
2019-02-06T10:51:37.589Z,101128.89
2019-02-06T10:55:40.400Z,101134.56
2019-02-06T10:59:42.994Z,101131.56
2019-02-06T11:03:45.815Z,101146.19
2019-02-06T11:07:48.426Z,101146.54
2019-02-06T11:11:51.180Z,101149.66
2019-02-06T11:15:53.687Z,101158.34
2019-02-06T11:19:56.334Z,101166.51
2019-02-06T11:23:58.974Z,101162.15
2019-02-06T11:28:01.744Z,101167.38
2019-02-06T11:32:05.008Z,101172.19
2019-02-06T11:36:07.810Z,101171.27
2019-02-06T11:40:15.412Z,101172.54
2019-02-06T11:44:17.578Z,101179.44
2019-02-06T11:48:19.908Z,101185.98
2019-02-06T11:52:23.949Z,101190.72
2019-02-06T11:56:26.513Z,101195.05
2019-02-06T12:00:35.858Z,101195.45
2019-02-06T12:04:38.324Z,101198.86
2019-02-06T12:08:40.833Z,101208.27
2019-02-06T12:12:43.433Z,101212.63
2019-02-06T12:16:46.102Z,101217.25
2019-02-06T12:20:48.723Z,101217.68
2019-02-06T12:24:51.498Z,101221.52
2019-02-06T12:28:54.116Z,101220.71
2019-02-06T12:32:57.048Z,101226.77
2019-02-06T12:36:59.609Z,101225.94
2019-02-06T12:41:02.390Z,101228.65
2019-02-06T12:45:05.853Z,101231.73
2019-02-06T12:49:08.653Z,101233.11
2019-02-06T12:53:11.308Z,101228.81
2019-02-06T12:57:15.703Z,101233.19
2019-02-06T13:01:18.286Z,101237.13
2019-02-06T13:05:20.993Z,101236.28
2019-02-06T13:09:23.503Z,101234.56
2019-02-06T13:13:26.366Z,101242.83
2019-02-06T13:17:29.001Z,101252.40
2019-02-06T13:21:31.586Z,101261.16
2019-02-06T13:25:33.984Z,101262.91
2019-02-06T13:29:36.643Z,101272.91
2019-02-06T13:33:39.439Z,101272.48
2019-02-06T13:37:42.419Z,101274.66
2019-02-06T13:41:44.963Z,101273.45
2019-02-06T13:45:48.811Z,101274.37
2019-02-06T13:49:51.708Z,101274.84
2019-02-06T13:53:54.956Z,101267.52
2019-02-06T13:57:57.643Z,101275.77
2019-02-06T14:02:01.087Z,101279.25
2019-02-06T14:06:04.097Z,101278.38
2019-02-06T14:10:08.363Z,101283.20
2019-02-06T14:14:12.495Z,101286.62
2019-02-06T14:18:15.553Z,101287.02
2019-02-06T14:22:18.102Z,101289.16
2019-02-06T14:26:49.949Z,101289.56
2019-02-06T14:31:47.933Z,101301.20
2019-02-06T14:36:42.954Z,101291.68
2019-02-06T14:41:32.123Z,101290.81
2019-02-06T14:46:05.970Z,101281.32
2019-02-06T14:50:33.912Z,101291.23
2019-02-06T14:55:07.136Z,101286.47
2019-02-06T14:59:48.638Z,101285.56
2019-02-06T15:04:18.203Z,101276.02
2019-02-06T15:08:55.481Z,101276.48
2019-02-06T15:13:36.962Z,101282.53
2019-02-06T15:18:32.077Z,101286.02
2019-02-06T15:23:01.599Z,101290.31
2019-02-06T15:28:05.963Z,101301.97
2019-02-06T15:32:28.702Z,101300.68
2019-02-06T15:37:02.095Z,101292.88
2019-02-06T15:41:39.828Z,101301.97
2019-02-06T15:46:18.768Z,101302.36
2019-02-06T15:50:42.242Z,101296.74
2019-02-06T15:55:23.039Z,101291.95
2019-02-06T16:00:08.143Z,101291.52
2019-02-06T16:04:54.017Z,101285.45
2019-02-06T16:09:34.601Z,101286.72
2019-02-06T16:14:13.330Z,101290.14
2019-02-06T16:18:33.638Z,101289.72
2019-02-06T16:23:06.027Z,101285.36
2019-02-06T16:27:51.872Z,101283.61
2019-02-06T16:32:27.258Z,101293.09
2019-02-06T16:37:19.645Z,101276.16
2019-02-06T16:41:29.474Z,101273.13
2019-02-06T16:46:30.767Z,101282.62
2019-02-06T16:51:09.212Z,101280.03
2019-02-06T16:55:50.655Z,101280.45
2019-02-06T17:00:40.018Z,101289.92
2019-02-06T17:05:31.722Z,101288.22
2019-02-06T17:10:32.881Z,101276.08
2019-02-06T17:15:25.792Z,101273.47
2019-02-06T17:19:51.251Z,101277.28
2019-02-06T17:24:35.741Z,101276.38
2019-02-06T17:29:10.287Z,101278.56
2019-02-06T17:33:52.737Z,101270.70
2019-02-06T17:38:31.954Z,101280.16
2019-02-06T17:43:17.753Z,101284.86
2019-02-06T17:48:08.422Z,101264.08
2019-02-06T17:52:43.722Z,101268.41
2019-02-06T17:56:46.558Z,101268.00
2019-02-06T18:01:21.578Z,101278.86
2019-02-06T18:05:27.073Z,101273.25
2019-02-06T18:09:30.097Z,101268.51
2019-02-06T18:13:32.794Z,101261.17
2019-02-06T18:17:35.407Z,101265.50
2019-02-06T18:21:38.242Z,101274.16
2019-02-06T18:25:41.452Z,101275.00
2019-02-06T18:29:44.237Z,101262.86
2019-02-06T18:33:47.118Z,101265.02
2019-02-06T18:37:52.337Z,101258.96
2019-02-06T18:41:55.321Z,101249.41
2019-02-06T18:45:59.447Z,101255.06
2019-02-06T18:50:03.242Z,101246.81
2019-02-06T18:54:08.926Z,101244.59
2019-02-06T18:58:12.287Z,101240.64
2019-02-06T19:02:17.052Z,101234.54
2019-02-06T19:06:19.952Z,101240.14
2019-02-06T19:10:22.672Z,101239.28
2019-02-06T19:14:25.951Z,101242.71
2019-02-06T19:18:28.646Z,101244.45
2019-02-06T19:22:32.971Z,101246.14
2019-02-06T19:26:35.711Z,101244.85
2019-02-06T19:30:39.642Z,101239.19
2019-02-06T19:34:42.284Z,101244.38
2019-02-06T19:38:46.154Z,101250.86
2019-02-06T19:42:58.858Z,101250.42
2019-02-06T19:46:54.389Z,101246.52
2019-02-06T19:50:57.142Z,101244.79
2019-02-06T19:54:59.951Z,101241.72
2019-02-06T19:59:02.574Z,101239.99
2019-02-06T20:03:08.227Z,101237.83
2019-02-06T20:07:10.808Z,101243.92
2019-02-06T20:11:14.136Z,101238.72
2019-02-06T20:15:17.232Z,101232.63
2019-02-06T20:19:20.753Z,101226.56
2019-02-06T20:23:24.854Z,101221.80
2019-02-06T20:27:27.617Z,101218.30
2019-02-06T20:31:30.250Z,101218.77
2019-02-06T20:35:33.166Z,101214.83
2019-02-06T20:39:35.848Z,101213.50
2019-02-06T20:43:39.118Z,101215.27
2019-02-06T20:47:41.723Z,101210.03
2019-02-06T20:51:44.475Z,101207.40
2019-02-06T20:55:47.469Z,101201.77
2019-02-06T20:59:50.148Z,101191.83
2019-02-06T21:03:53.191Z,101190.10
2019-02-06T21:07:55.834Z,101189.16
2019-02-06T21:11:58.641Z,101180.93
2019-02-06T21:16:01.592Z,101181.40
2019-02-06T21:20:04.362Z,101180.20
2019-02-06T21:24:07.278Z,101175.41
2019-02-06T21:28:10.029Z,101178.87
2019-02-06T21:32:12.851Z,101186.67
2019-02-06T21:36:15.610Z,101175.33
2019-02-06T21:40:20.919Z,101172.70
2019-02-06T21:44:23.720Z,101174.86
2019-02-06T21:48:26.441Z,101167.06
2019-02-06T21:52:29.153Z,101159.59
2019-02-06T21:56:31.808Z,101152.18
2019-02-06T22:00:37.699Z,101146.91
2019-02-06T22:04:40.389Z,101142.58
2019-02-06T22:08:43.327Z,101137.77
2019-02-06T22:12:46.361Z,101144.66
2019-02-06T22:16:50.755Z,101135.08
2019-02-06T22:20:53.866Z,101129.83
2019-02-06T22:24:56.647Z,101135.81
2019-02-06T22:29:00.336Z,101133.17
2019-02-06T22:33:03.152Z,101125.28
2019-02-06T22:37:06.295Z,101119.61
2019-02-06T22:41:09.082Z,101123.90
2019-02-06T22:45:15.155Z,101125.63
2019-02-06T22:49:17.806Z,101120.81
2019-02-06T22:53:20.552Z,101111.18
2019-02-06T22:57:23.187Z,101091.47
2019-02-06T23:01:38.097Z,101085.23
2019-02-06T23:05:41.056Z,101081.18
2019-02-06T23:09:43.825Z,101081.47
2019-02-06T23:13:46.649Z,101066.77
2019-02-06T23:17:49.733Z,101048.05
2019-02-06T23:21:52.630Z,101041.69
2019-02-06T23:25:55.323Z,101030.11
2019-02-06T23:29:58.034Z,101007.47
2019-02-06T23:34:00.654Z,101015.27
2019-02-06T23:38:03.316Z,101008.28
2019-02-06T23:42:06.147Z,101018.80
2019-02-06T23:46:08.799Z,101008.59
2019-02-06T23:50:11.721Z,100990.70
2019-02-06T23:54:14.434Z,100977.14
2019-02-06T23:58:17.209Z,100981.61
